sensor_id;sensor_type;location;lat;lon;timestamp;P1;durP1;ratioP1;P2;durP2;ratioP2
75465;SDS011;64049;46.290;44.240;2023-07-31T00:01:56;8.57;;;4.82;;
75465;SDS011;64049;46.290;44.240;2023-07-31T00:04:22;8.27;;;3.50;;
75465;SDS011;64049;46.290;44.240;2023-07-31T00:06:48;8.95;;;3.58;;
75465;SDS011;64049;46.290;44.240;2023-07-31T00:09:13;8.82;;;3.72;;
75465;SDS011;64049;46.290;44.240;2023-07-31T00:11:40;9.40;;;3.95;;
75465;SDS011;64049;46.290;44.240;2023-07-31T00:14:06;7.32;;;3.45;;
75465;SDS011;64049;46.290;44.240;2023-07-31T00:16:32;8.65;;;3.55;;
75465;SDS011;64049;46.290;44.240;2023-07-31T00:18:58;8.38;;;4.00;;
75465;SDS011;64049;46.290;44.240;2023-07-31T00:21:24;6.85;;;3.38;;
75465;SDS011;64049;46.290;44.240;2023-07-31T00:23:50;7.85;;;3.58;;
75465;SDS011;64049;46.290;44.240;2023-07-31T00:26:16;7.30;;;3.47;;
75465;SDS011;64049;46.290;44.240;2023-07-31T00:28:41;7.93;;;3.83;;
75465;SDS011;64049;46.290;44.240;2023-07-31T00:31:07;7.40;;;3.70;;
75465;SDS011;64049;46.290;44.240;2023-07-31T00:33:35;6.72;;;3.40;;
75465;SDS011;64049;46.290;44.240;2023-07-31T00:36:02;13.48;;;3.97;;
75465;SDS011;64049;46.290;44.240;2023-07-31T00:38:28;5.72;;;3.38;;
75465;SDS011;64049;46.290;44.240;2023-07-31T00:40:54;8.82;;;3.60;;
75465;SDS011;64049;46.290;44.240;2023-07-31T00:43:20;7.32;;;3.72;;
75465;SDS011;64049;46.290;44.240;2023-07-31T00:45:46;6.85;;;3.50;;
75465;SDS011;64049;46.290;44.240;2023-07-31T00:48:11;5.60;;;3.60;;
75465;SDS011;64049;46.290;44.240;2023-07-31T00:50:37;7.78;;;3.88;;
75465;SDS011;64049;46.290;44.240;2023-07-31T00:53:04;7.78;;;3.50;;
75465;SDS011;64049;46.290;44.240;2023-07-31T00:55:32;8.73;;;3.55;;
75465;SDS011;64049;46.290;44.240;2023-07-31T00:57:59;7.05;;;3.33;;
75465;SDS011;64049;46.290;44.240;2023-07-31T01:00:25;7.25;;;3.35;;
75465;SDS011;64049;46.290;44.240;2023-07-31T01:02:54;8.60;;;3.10;;
75465;SDS011;64049;46.290;44.240;2023-07-31T01:05:21;7.47;;;3.30;;
75465;SDS011;64049;46.290;44.240;2023-07-31T01:10:37;7.40;;;2.80;;
75465;SDS011;64049;46.290;44.240;2023-07-31T01:13:11;12.18;;;4.82;;
75465;SDS011;64049;46.290;44.240;2023-07-31T01:15:38;7.68;;;2.53;;
75465;SDS011;64049;46.290;44.240;2023-07-31T01:18:04;12.07;;;3.13;;
75465;SDS011;64049;46.290;44.240;2023-07-31T01:20:29;6.07;;;2.67;;
75465;SDS011;64049;46.290;44.240;2023-07-31T01:28:26;5.60;;;3.20;;
75465;SDS011;64049;46.290;44.240;2023-07-31T01:31:09;5.53;;;2.80;;
75465;SDS011;64049;46.290;44.240;2023-07-31T01:33:40;6.90;;;3.33;;
75465;SDS011;64049;46.290;44.240;2023-07-31T01:36:06;6.45;;;3.40;;
75465;SDS011;64049;46.290;44.240;2023-07-31T01:38:33;6.50;;;3.00;;
75465;SDS011;64049;46.290;44.240;2023-07-31T01:40:59;6.68;;;3.15;;
75465;SDS011;64049;46.290;44.240;2023-07-31T01:43:24;8.15;;;3.08;;
75465;SDS011;64049;46.290;44.240;2023-07-31T01:45:50;6.45;;;2.70;;
75465;SDS011;64049;46.290;44.240;2023-07-31T01:48:16;7.05;;;3.35;;
75465;SDS011;64049;46.290;44.240;2023-07-31T01:50:42;6.50;;;3.50;;
75465;SDS011;64049;46.290;44.240;2023-07-31T01:53:08;7.80;;;3.22;;
75465;SDS011;64049;46.290;44.240;2023-07-31T01:55:34;10.07;;;3.20;;
75465;SDS011;64049;46.290;44.240;2023-07-31T01:58:00;13.23;;;4.20;;
75465;SDS011;64049;46.290;44.240;2023-07-31T02:00:26;10.25;;;4.75;;
75465;SDS011;64049;46.290;44.240;2023-07-31T02:02:52;10.85;;;5.25;;
75465;SDS011;64049;46.290;44.240;2023-07-31T02:05:18;10.93;;;5.00;;
75465;SDS011;64049;46.290;44.240;2023-07-31T02:07:44;15.40;;;5.10;;
75465;SDS011;64049;46.290;44.240;2023-07-31T02:10:10;11.88;;;4.03;;
75465;SDS011;64049;46.290;44.240;2023-07-31T02:12:36;11.07;;;4.95;;
75465;SDS011;64049;46.290;44.240;2023-07-31T02:15:02;9.93;;;5.07;;
75465;SDS011;64049;46.290;44.240;2023-07-31T02:17:28;10.48;;;5.57;;
75465;SDS011;64049;46.290;44.240;2023-07-31T02:19:54;10.93;;;5.72;;
75465;SDS011;64049;46.290;44.240;2023-07-31T02:22:21;10.65;;;5.05;;
75465;SDS011;64049;46.290;44.240;2023-07-31T02:24:47;16.00;;;6.30;;
75465;SDS011;64049;46.290;44.240;2023-07-31T02:27:13;7.70;;;4.18;;
75465;SDS011;64049;46.290;44.240;2023-07-31T02:29:39;10.93;;;4.88;;
75465;SDS011;64049;46.290;44.240;2023-07-31T02:32:05;9.18;;;4.68;;
75465;SDS011;64049;46.290;44.240;2023-07-31T02:34:31;8.43;;;3.92;;
75465;SDS011;64049;46.290;44.240;2023-07-31T02:36:57;9.45;;;4.95;;
75465;SDS011;64049;46.290;44.240;2023-07-31T02:39:23;12.05;;;5.28;;
75465;SDS011;64049;46.290;44.240;2023-07-31T02:41:49;11.80;;;5.90;;
75465;SDS011;64049;46.290;44.240;2023-07-31T02:44:16;10.18;;;6.82;;
75465;SDS011;64049;46.290;44.240;2023-07-31T02:46:41;15.80;;;7.65;;
75465;SDS011;64049;46.290;44.240;2023-07-31T02:49:07;13.23;;;5.93;;
75465;SDS011;64049;46.290;44.240;2023-07-31T02:51:33;12.80;;;5.72;;
75465;SDS011;64049;46.290;44.240;2023-07-31T02:53:59;18.23;;;6.47;;
75465;SDS011;64049;46.290;44.240;2023-07-31T02:56:25;11.60;;;5.75;;
75465;SDS011;64049;46.290;44.240;2023-07-31T02:58:51;15.93;;;5.57;;
75465;SDS011;64049;46.290;44.240;2023-07-31T03:01:17;10.35;;;5.53;;
75465;SDS011;64049;46.290;44.240;2023-07-31T03:03:43;13.82;;;7.57;;
75465;SDS011;64049;46.290;44.240;2023-07-31T03:06:11;12.40;;;5.57;;
75465;SDS011;64049;46.290;44.240;2023-07-31T03:08:36;17.30;;;5.65;;
75465;SDS011;64049;46.290;44.240;2023-07-31T03:11:02;12.70;;;5.47;;
75465;SDS011;64049;46.290;44.240;2023-07-31T03:13:28;11.00;;;4.28;;
75465;SDS011;64049;46.290;44.240;2023-07-31T03:15:54;9.40;;;5.45;;
75465;SDS011;64049;46.290;44.240;2023-07-31T03:18:20;8.25;;;4.10;;
75465;SDS011;64049;46.290;44.240;2023-07-31T03:20:46;7.60;;;3.40;;
75465;SDS011;64049;46.290;44.240;2023-07-31T03:23:12;7.70;;;2.90;;
75465;SDS011;64049;46.290;44.240;2023-07-31T03:25:38;11.63;;;4.00;;
75465;SDS011;64049;46.290;44.240;2023-07-31T03:28:04;6.47;;;3.30;;
75465;SDS011;64049;46.290;44.240;2023-07-31T03:30:30;10.20;;;3.65;;
75465;SDS011;64049;46.290;44.240;2023-07-31T03:32:57;7.03;;;2.67;;
75465;SDS011;64049;46.290;44.240;2023-07-31T03:35:23;4.88;;;2.35;;
75465;SDS011;64049;46.290;44.240;2023-07-31T03:37:49;5.13;;;2.35;;
75465;SDS011;64049;46.290;44.240;2023-07-31T03:40:15;6.45;;;2.92;;
75465;SDS011;64049;46.290;44.240;2023-07-31T03:42:41;6.65;;;2.70;;
75465;SDS011;64049;46.290;44.240;2023-07-31T03:45:08;6.55;;;2.40;;
75465;SDS011;64049;46.290;44.240;2023-07-31T03:47:34;6.25;;;2.78;;
75465;SDS011;64049;46.290;44.240;2023-07-31T03:50:00;5.30;;;2.42;;
75465;SDS011;64049;46.290;44.240;2023-07-31T03:52:25;7.25;;;2.88;;
75465;SDS011;64049;46.290;44.240;2023-07-31T03:54:51;7.53;;;3.20;;
75465;SDS011;64049;46.290;44.240;2023-07-31T03:57:17;10.50;;;3.60;;
75465;SDS011;64049;46.290;44.240;2023-07-31T03:59:43;6.82;;;3.25;;
75465;SDS011;64049;46.290;44.240;2023-07-31T04:02:09;11.73;;;3.70;;
75465;SDS011;64049;46.290;44.240;2023-07-31T04:04:35;9.05;;;3.58;;
75465;SDS011;64049;46.290;44.240;2023-07-31T04:07:00;8.30;;;3.40;;
75465;SDS011;64049;46.290;44.240;2023-07-31T04:09:26;9.95;;;3.72;;
75465;SDS011;64049;46.290;44.240;2023-07-31T04:11:52;9.82;;;2.92;;
75465;SDS011;64049;46.290;44.240;2023-07-31T04:14:18;10.10;;;3.42;;
75465;SDS011;64049;46.290;44.240;2023-07-31T04:16:44;11.57;;;4.38;;
75465;SDS011;64049;46.290;44.240;2023-07-31T04:19:10;13.98;;;4.63;;
75465;SDS011;64049;46.290;44.240;2023-07-31T04:21:36;8.98;;;3.83;;
75465;SDS011;64049;46.290;44.240;2023-07-31T04:24:01;7.65;;;4.68;;
75465;SDS011;64049;46.290;44.240;2023-07-31T04:26:27;7.47;;;3.30;;
75465;SDS011;64049;46.290;44.240;2023-07-31T04:28:55;9.00;;;4.90;;
75465;SDS011;64049;46.290;44.240;2023-07-31T04:31:21;7.88;;;4.25;;
75465;SDS011;64049;46.290;44.240;2023-07-31T04:33:50;12.18;;;5.53;;
75465;SDS011;64049;46.290;44.240;2023-07-31T04:36:16;9.65;;;4.72;;
75465;SDS011;64049;46.290;44.240;2023-07-31T04:38:42;10.65;;;4.15;;
75465;SDS011;64049;46.290;44.240;2023-07-31T04:41:08;11.15;;;4.53;;
75465;SDS011;64049;46.290;44.240;2023-07-31T04:43:35;10.98;;;4.18;;
75465;SDS011;64049;46.290;44.240;2023-07-31T04:46:04;8.70;;;4.35;;
75465;SDS011;64049;46.290;44.240;2023-07-31T04:48:30;12.88;;;4.55;;
75465;SDS011;64049;46.290;44.240;2023-07-31T04:50:56;13.38;;;4.15;;
75465;SDS011;64049;46.290;44.240;2023-07-31T04:53:22;8.20;;;5.15;;
75465;SDS011;64049;46.290;44.240;2023-07-31T04:55:48;7.93;;;4.45;;
75465;SDS011;64049;46.290;44.240;2023-07-31T04:58:14;7.72;;;4.10;;
75465;SDS011;64049;46.290;44.240;2023-07-31T05:00:40;11.02;;;4.45;;
75465;SDS011;64049;46.290;44.240;2023-07-31T05:03:05;8.20;;;3.42;;
75465;SDS011;64049;46.290;44.240;2023-07-31T05:05:32;6.03;;;3.55;;
75465;SDS011;64049;46.290;44.240;2023-07-31T05:07:58;8.23;;;3.53;;
75465;SDS011;64049;46.290;44.240;2023-07-31T05:10:24;6.20;;;3.40;;
75465;SDS011;64049;46.290;44.240;2023-07-31T05:12:51;10.65;;;2.90;;
75465;SDS011;64049;46.290;44.240;2023-07-31T05:15:16;7.13;;;2.90;;
75465;SDS011;64049;46.290;44.240;2023-07-31T05:17:42;9.07;;;2.97;;
75465;SDS011;64049;46.290;44.240;2023-07-31T05:20:08;8.07;;;2.55;;
75465;SDS011;64049;46.290;44.240;2023-07-31T05:22:34;10.18;;;2.95;;
75465;SDS011;64049;46.290;44.240;2023-07-31T05:25:00;6.95;;;2.90;;
75465;SDS011;64049;46.290;44.240;2023-07-31T05:27:26;7.80;;;2.65;;
75465;SDS011;64049;46.290;44.240;2023-07-31T05:29:52;9.95;;;3.00;;
75465;SDS011;64049;46.290;44.240;2023-07-31T05:32:19;7.25;;;3.03;;
75465;SDS011;64049;46.290;44.240;2023-07-31T05:37:10;5.85;;;2.78;;
75465;SDS011;64049;46.290;44.240;2023-07-31T05:39:37;6.50;;;3.13;;
75465;SDS011;64049;46.290;44.240;2023-07-31T05:42:04;8.02;;;3.17;;
75465;SDS011;64049;46.290;44.240;2023-07-31T05:44:30;6.40;;;3.00;;
75465;SDS011;64049;46.290;44.240;2023-07-31T05:46:56;5.78;;;3.50;;
75465;SDS011;64049;46.290;44.240;2023-07-31T05:49:22;8.35;;;3.10;;
75465;SDS011;64049;46.290;44.240;2023-07-31T05:51:48;10.70;;;3.75;;
75465;SDS011;64049;46.290;44.240;2023-07-31T05:54:13;5.82;;;2.90;;
75465;SDS011;64049;46.290;44.240;2023-07-31T05:56:39;7.60;;;2.83;;
75465;SDS011;64049;46.290;44.240;2023-07-31T05:59:05;6.35;;;3.33;;
75465;SDS011;64049;46.290;44.240;2023-07-31T06:01:31;9.73;;;3.30;;
75465;SDS011;64049;46.290;44.240;2023-07-31T06:03:57;8.15;;;3.13;;
75465;SDS011;64049;46.290;44.240;2023-07-31T06:06:23;7.32;;;3.00;;
75465;SDS011;64049;46.290;44.240;2023-07-31T06:08:49;6.40;;;2.67;;
75465;SDS011;64049;46.290;44.240;2023-07-31T06:11:15;10.32;;;2.70;;
75465;SDS011;64049;46.290;44.240;2023-07-31T06:13:41;8.63;;;2.10;;
75465;SDS011;64049;46.290;44.240;2023-07-31T06:16:07;4.65;;;2.20;;
75465;SDS011;64049;46.290;44.240;2023-07-31T06:18:33;7.68;;;2.40;;
75465;SDS011;64049;46.290;44.240;2023-07-31T06:20:59;4.93;;;2.15;;
75465;SDS011;64049;46.290;44.240;2023-07-31T06:23:26;5.00;;;1.90;;
75465;SDS011;64049;46.290;44.240;2023-07-31T06:28:17;9.35;;;2.47;;
75465;SDS011;64049;46.290;44.240;2023-07-31T06:30:43;10.93;;;2.63;;
75465;SDS011;64049;46.290;44.240;2023-07-31T06:33:09;6.43;;;2.10;;
75465;SDS011;64049;46.290;44.240;2023-07-31T06:35:35;10.68;;;2.33;;
75465;SDS011;64049;46.290;44.240;2023-07-31T06:38:01;9.77;;;2.30;;
75465;SDS011;64049;46.290;44.240;2023-07-31T06:40:27;7.20;;;2.40;;
75465;SDS011;64049;46.290;44.240;2023-07-31T06:42:54;5.63;;;2.83;;
75465;SDS011;64049;46.290;44.240;2023-07-31T06:45:20;12.05;;;2.63;;
75465;SDS011;64049;46.290;44.240;2023-07-31T06:47:47;7.43;;;2.58;;
75465;SDS011;64049;46.290;44.240;2023-07-31T06:50:13;6.10;;;3.60;;
75465;SDS011;64049;46.290;44.240;2023-07-31T06:52:39;7.53;;;3.58;;
75465;SDS011;64049;46.290;44.240;2023-07-31T06:55:18;7.18;;;3.85;;
75465;SDS011;64049;46.290;44.240;2023-07-31T06:57:49;6.97;;;3.50;;
75465;SDS011;64049;46.290;44.240;2023-07-31T07:00:16;7.97;;;5.07;;
75465;SDS011;64049;46.290;44.240;2023-07-31T07:02:42;11.02;;;6.13;;
75465;SDS011;64049;46.290;44.240;2023-07-31T07:05:08;7.07;;;3.88;;
75465;SDS011;64049;46.290;44.240;2023-07-31T07:07:35;9.23;;;5.53;;
75465;SDS011;64049;46.290;44.240;2023-07-31T07:10:01;12.80;;;6.82;;
75465;SDS011;64049;46.290;44.240;2023-07-31T07:12:30;10.00;;;4.82;;
75465;SDS011;64049;46.290;44.240;2023-07-31T07:14:56;11.93;;;6.75;;
75465;SDS011;64049;46.290;44.240;2023-07-31T07:17:26;10.13;;;6.70;;
75465;SDS011;64049;46.290;44.240;2023-07-31T07:19:52;13.35;;;8.52;;
75465;SDS011;64049;46.290;44.240;2023-07-31T07:22:18;16.73;;;11.60;;
75465;SDS011;64049;46.290;44.240;2023-07-31T07:24:44;12.57;;;9.07;;
75465;SDS011;64049;46.290;44.240;2023-07-31T07:27:10;16.17;;;10.68;;
75465;SDS011;64049;46.290;44.240;2023-07-31T07:29:37;13.48;;;10.40;;
75465;SDS011;64049;46.290;44.240;2023-07-31T07:32:03;9.43;;;5.55;;
75465;SDS011;64049;46.290;44.240;2023-07-31T07:34:29;8.73;;;4.57;;
75465;SDS011;64049;46.290;44.240;2023-07-31T07:36:55;7.85;;;4.65;;
75465;SDS011;64049;46.290;44.240;2023-07-31T07:39:21;8.75;;;4.50;;
75465;SDS011;64049;46.290;44.240;2023-07-31T07:41:47;10.77;;;4.10;;
75465;SDS011;64049;46.290;44.240;2023-07-31T07:44:13;8.40;;;3.70;;
75465;SDS011;64049;46.290;44.240;2023-07-31T07:46:40;8.23;;;3.83;;
75465;SDS011;64049;46.290;44.240;2023-07-31T07:51:32;5.85;;;2.97;;
75465;SDS011;64049;46.290;44.240;2023-07-31T07:53:58;6.90;;;3.35;;
75465;SDS011;64049;46.290;44.240;2023-07-31T07:56:27;5.30;;;2.65;;
75465;SDS011;64049;46.290;44.240;2023-07-31T07:58:54;5.22;;;2.50;;
75465;SDS011;64049;46.290;44.240;2023-07-31T08:03:49;5.35;;;2.47;;
75465;SDS011;64049;46.290;44.240;2023-07-31T08:06:15;7.07;;;2.60;;
75465;SDS011;64049;46.290;44.240;2023-07-31T08:08:42;13.75;;;3.50;;
75465;SDS011;64049;46.290;44.240;2023-07-31T08:11:08;16.90;;;3.60;;
75465;SDS011;64049;46.290;44.240;2023-07-31T08:13:34;12.32;;;2.95;;
75465;SDS011;64049;46.290;44.240;2023-07-31T08:16:02;6.70;;;2.65;;
75465;SDS011;64049;46.290;44.240;2023-07-31T08:18:30;6.53;;;2.50;;
75465;SDS011;64049;46.290;44.240;2023-07-31T08:20:56;7.10;;;3.28;;
75465;SDS011;64049;46.290;44.240;2023-07-31T08:23:22;5.53;;;2.80;;
75465;SDS011;64049;46.290;44.240;2023-07-31T08:25:48;5.85;;;3.35;;
75465;SDS011;64049;46.290;44.240;2023-07-31T08:28:16;8.45;;;2.72;;
75465;SDS011;64049;46.290;44.240;2023-07-31T08:30:42;5.88;;;3.00;;
75465;SDS011;64049;46.290;44.240;2023-07-31T08:33:08;6.00;;;2.90;;
75465;SDS011;64049;46.290;44.240;2023-07-31T08:35:34;10.20;;;3.60;;
75465;SDS011;64049;46.290;44.240;2023-07-31T08:38:00;6.50;;;3.10;;
75465;SDS011;64049;46.290;44.240;2023-07-31T08:40:25;7.63;;;3.17;;
75465;SDS011;64049;46.290;44.240;2023-07-31T08:42:54;6.50;;;2.72;;
75465;SDS011;64049;46.290;44.240;2023-07-31T08:45:22;8.40;;;3.25;;
75465;SDS011;64049;46.290;44.240;2023-07-31T08:50:16;5.88;;;2.67;;
75465;SDS011;64049;46.290;44.240;2023-07-31T08:52:43;7.45;;;3.13;;
75465;SDS011;64049;46.290;44.240;2023-07-31T08:55:09;7.80;;;2.70;;
75465;SDS011;64049;46.290;44.240;2023-07-31T08:57:37;7.13;;;3.10;;
75465;SDS011;64049;46.290;44.240;2023-07-31T09:00:04;5.47;;;2.60;;
75465;SDS011;64049;46.290;44.240;2023-07-31T09:02:41;5.75;;;2.70;;
75465;SDS011;64049;46.290;44.240;2023-07-31T09:05:14;5.93;;;2.40;;
75465;SDS011;64049;46.290;44.240;2023-07-31T09:07:42;5.85;;;2.50;;
75465;SDS011;64049;46.290;44.240;2023-07-31T09:10:11;10.35;;;2.72;;
75465;SDS011;64049;46.290;44.240;2023-07-31T09:12:39;5.40;;;2.72;;
75465;SDS011;64049;46.290;44.240;2023-07-31T09:15:05;4.95;;;2.40;;
75465;SDS011;64049;46.290;44.240;2023-07-31T09:17:32;5.93;;;2.15;;
75465;SDS011;64049;46.290;44.240;2023-07-31T09:20:15;5.80;;;2.13;;
75465;SDS011;64049;46.290;44.240;2023-07-31T09:22:43;7.82;;;2.53;;
75465;SDS011;64049;46.290;44.240;2023-07-31T09:30:14;5.28;;;2.00;;
75465;SDS011;64049;46.290;44.240;2023-07-31T09:32:40;6.13;;;2.10;;
75465;SDS011;64049;46.290;44.240;2023-07-31T09:38:00;6.80;;;2.03;;
75465;SDS011;64049;46.290;44.240;2023-07-31T09:40:31;8.93;;;2.38;;
75465;SDS011;64049;46.290;44.240;2023-07-31T09:42:59;5.30;;;2.55;;
75465;SDS011;64049;46.290;44.240;2023-07-31T09:45:26;7.05;;;2.20;;
75465;SDS011;64049;46.290;44.240;2023-07-31T09:47:53;5.03;;;2.05;;
75465;SDS011;64049;46.290;44.240;2023-07-31T09:52:46;5.35;;;1.90;;
75465;SDS011;64049;46.290;44.240;2023-07-31T09:55:12;8.52;;;1.95;;
75465;SDS011;64049;46.290;44.240;2023-07-31T09:57:39;5.43;;;2.00;;
75465;SDS011;64049;46.290;44.240;2023-07-31T10:00:09;5.53;;;2.00;;
75465;SDS011;64049;46.290;44.240;2023-07-31T10:02:41;6.68;;;1.75;;
75465;SDS011;64049;46.290;44.240;2023-07-31T10:05:13;6.47;;;2.42;;
75465;SDS011;64049;46.290;44.240;2023-07-31T10:07:45;4.47;;;1.77;;
75465;SDS011;64049;46.290;44.240;2023-07-31T10:10:22;4.70;;;2.20;;
75465;SDS011;64049;46.290;44.240;2023-07-31T10:12:50;4.25;;;1.55;;
75465;SDS011;64049;46.290;44.240;2023-07-31T10:15:18;7.93;;;2.25;;
75465;SDS011;64049;46.290;44.240;2023-07-31T10:17:46;5.28;;;1.92;;
75465;SDS011;64049;46.290;44.240;2023-07-31T10:20:14;4.88;;;1.63;;
75465;SDS011;64049;46.290;44.240;2023-07-31T10:22:42;7.75;;;3.67;;
75465;SDS011;64049;46.290;44.240;2023-07-31T10:25:08;6.90;;;2.88;;
75465;SDS011;64049;46.290;44.240;2023-07-31T10:30:01;8.77;;;1.95;;
75465;SDS011;64049;46.290;44.240;2023-07-31T10:32:30;4.70;;;1.85;;
75465;SDS011;64049;46.290;44.240;2023-07-31T10:34:56;4.88;;;1.70;;
75465;SDS011;64049;46.290;44.240;2023-07-31T10:37:30;5.32;;;1.90;;
75465;SDS011;64049;46.290;44.240;2023-07-31T10:40:05;5.22;;;1.88;;
75465;SDS011;64049;46.290;44.240;2023-07-31T10:42:44;3.58;;;1.60;;
75465;SDS011;64049;46.290;44.240;2023-07-31T10:45:12;5.47;;;1.92;;
75465;SDS011;64049;46.290;44.240;2023-07-31T10:47:42;4.68;;;1.40;;
75465;SDS011;64049;46.290;44.240;2023-07-31T10:50:19;5.53;;;1.80;;
75465;SDS011;64049;46.290;44.240;2023-07-31T10:52:47;10.75;;;2.00;;
75465;SDS011;64049;46.290;44.240;2023-07-31T10:57:51;4.60;;;1.60;;
75465;SDS011;64049;46.290;44.240;2023-07-31T11:00:28;5.55;;;1.70;;
75465;SDS011;64049;46.290;44.240;2023-07-31T11:03:01;4.35;;;1.27;;
75465;SDS011;64049;46.290;44.240;2023-07-31T11:05:41;6.13;;;1.70;;
75465;SDS011;64049;46.290;44.240;2023-07-31T11:10:37;4.05;;;1.45;;
75465;SDS011;64049;46.290;44.240;2023-07-31T11:13:06;4.68;;;1.40;;
75465;SDS011;64049;46.290;44.240;2023-07-31T11:15:32;3.67;;;1.17;;
75465;SDS011;64049;46.290;44.240;2023-07-31T11:17:59;4.72;;;1.40;;
75465;SDS011;64049;46.290;44.240;2023-07-31T11:20:37;5.03;;;1.42;;
75465;SDS011;64049;46.290;44.240;2023-07-31T11:23:08;3.92;;;1.42;;
75465;SDS011;64049;46.290;44.240;2023-07-31T11:25:35;4.20;;;1.88;;
75465;SDS011;64049;46.290;44.240;2023-07-31T11:28:06;4.03;;;1.48;;
75465;SDS011;64049;46.290;44.240;2023-07-31T11:30:37;3.92;;;1.70;;
75465;SDS011;64049;46.290;44.240;2023-07-31T11:33:05;4.70;;;1.70;;
75465;SDS011;64049;46.290;44.240;2023-07-31T11:35:41;5.93;;;1.63;;
75465;SDS011;64049;46.290;44.240;2023-07-31T11:38:11;3.65;;;1.30;;
75465;SDS011;64049;46.290;44.240;2023-07-31T11:40:41;4.60;;;1.73;;
75465;SDS011;64049;46.290;44.240;2023-07-31T11:43:07;5.07;;;1.75;;
75465;SDS011;64049;46.290;44.240;2023-07-31T11:45:33;7.28;;;1.67;;
75465;SDS011;64049;46.290;44.240;2023-07-31T11:48:00;6.47;;;1.48;;
75465;SDS011;64049;46.290;44.240;2023-07-31T11:50:26;11.13;;;1.95;;
75465;SDS011;64049;46.290;44.240;2023-07-31T11:53:03;5.60;;;1.45;;
75465;SDS011;64049;46.290;44.240;2023-07-31T11:55:33;3.83;;;1.50;;
75465;SDS011;64049;46.290;44.240;2023-07-31T11:57:59;4.78;;;1.70;;
75465;SDS011;64049;46.290;44.240;2023-07-31T12:00:25;4.95;;;2.08;;
75465;SDS011;64049;46.290;44.240;2023-07-31T12:02:52;10.70;;;1.88;;
75465;SDS011;64049;46.290;44.240;2023-07-31T12:05:19;4.68;;;1.70;;
75465;SDS011;64049;46.290;44.240;2023-07-31T12:07:51;4.72;;;1.50;;
75465;SDS011;64049;46.290;44.240;2023-07-31T12:10:23;4.28;;;1.70;;
75465;SDS011;64049;46.290;44.240;2023-07-31T12:13:00;3.85;;;1.60;;
75465;SDS011;64049;46.290;44.240;2023-07-31T12:15:34;4.28;;;1.48;;
75465;SDS011;64049;46.290;44.240;2023-07-31T12:18:12;5.25;;;1.92;;
75465;SDS011;64049;46.290;44.240;2023-07-31T12:20:44;4.97;;;1.50;;
75465;SDS011;64049;46.290;44.240;2023-07-31T12:31:08;6.50;;;1.65;;
75465;SDS011;64049;46.290;44.240;2023-07-31T12:33:35;5.90;;;1.80;;
75465;SDS011;64049;46.290;44.240;2023-07-31T12:36:03;4.53;;;1.40;;
75465;SDS011;64049;46.290;44.240;2023-07-31T12:38:34;4.88;;;1.73;;
75465;SDS011;64049;46.290;44.240;2023-07-31T12:41:00;9.52;;;2.97;;
75465;SDS011;64049;46.290;44.240;2023-07-31T12:43:26;8.07;;;1.60;;
75465;SDS011;64049;46.290;44.240;2023-07-31T12:45:53;6.53;;;1.30;;
75465;SDS011;64049;46.290;44.240;2023-07-31T12:48:21;6.07;;;2.22;;
75465;SDS011;64049;46.290;44.240;2023-07-31T12:50:47;5.35;;;1.40;;
75465;SDS011;64049;46.290;44.240;2023-07-31T12:53:13;7.22;;;1.77;;
75465;SDS011;64049;46.290;44.240;2023-07-31T12:55:40;3.95;;;1.38;;
75465;SDS011;64049;46.290;44.240;2023-07-31T12:58:06;5.18;;;1.58;;
75465;SDS011;64049;46.290;44.240;2023-07-31T13:00:31;5.72;;;1.80;;
75465;SDS011;64049;46.290;44.240;2023-07-31T13:02:59;7.72;;;1.33;;
75465;SDS011;64049;46.290;44.240;2023-07-31T13:05:26;6.68;;;1.50;;
75465;SDS011;64049;46.290;44.240;2023-07-31T13:07:52;10.07;;;2.10;;
75465;SDS011;64049;46.290;44.240;2023-07-31T13:10:19;18.50;;;2.50;;
75465;SDS011;64049;46.290;44.240;2023-07-31T13:12:45;6.72;;;1.77;;
75465;SDS011;64049;46.290;44.240;2023-07-31T13:15:11;6.25;;;1.50;;
75465;SDS011;64049;46.290;44.240;2023-07-31T13:17:38;3.60;;;1.25;;
75465;SDS011;64049;46.290;44.240;2023-07-31T13:20:04;9.27;;;2.03;;
75465;SDS011;64049;46.290;44.240;2023-07-31T13:22:30;7.22;;;1.70;;
75465;SDS011;64049;46.290;44.240;2023-07-31T13:24:56;6.10;;;1.40;;
75465;SDS011;64049;46.290;44.240;2023-07-31T13:27:22;6.90;;;1.83;;
75465;SDS011;64049;46.290;44.240;2023-07-31T13:29:48;14.60;;;1.92;;
75465;SDS011;64049;46.290;44.240;2023-07-31T13:32:15;9.30;;;1.50;;
75465;SDS011;64049;46.290;44.240;2023-07-31T13:34:42;7.55;;;1.55;;
75465;SDS011;64049;46.290;44.240;2023-07-31T13:37:08;6.10;;;1.35;;
75465;SDS011;64049;46.290;44.240;2023-07-31T13:39:34;14.70;;;2.63;;
75465;SDS011;64049;46.290;44.240;2023-07-31T13:42:01;11.13;;;2.03;;
75465;SDS011;64049;46.290;44.240;2023-07-31T13:44:28;8.70;;;2.00;;
75465;SDS011;64049;46.290;44.240;2023-07-31T13:46:54;9.05;;;2.10;;
75465;SDS011;64049;46.290;44.240;2023-07-31T13:49:20;10.15;;;1.98;;
75465;SDS011;64049;46.290;44.240;2023-07-31T13:51:46;9.63;;;2.03;;
75465;SDS011;64049;46.290;44.240;2023-07-31T13:54:12;7.35;;;1.75;;
75465;SDS011;64049;46.290;44.240;2023-07-31T13:56:38;7.88;;;2.33;;
75465;SDS011;64049;46.290;44.240;2023-07-31T13:59:04;11.52;;;3.20;;
75465;SDS011;64049;46.290;44.240;2023-07-31T14:01:30;9.65;;;2.28;;
75465;SDS011;64049;46.290;44.240;2023-07-31T14:03:56;4.55;;;1.80;;
75465;SDS011;64049;46.290;44.240;2023-07-31T14:06:22;9.20;;;1.90;;
75465;SDS011;64049;46.290;44.240;2023-07-31T14:08:48;5.75;;;1.60;;
75465;SDS011;64049;46.290;44.240;2023-07-31T14:11:14;7.45;;;1.80;;
75465;SDS011;64049;46.290;44.240;2023-07-31T14:13:40;7.05;;;1.80;;
75465;SDS011;64049;46.290;44.240;2023-07-31T14:16:06;4.85;;;1.90;;
75465;SDS011;64049;46.290;44.240;2023-07-31T14:18:31;6.80;;;1.50;;
75465;SDS011;64049;46.290;44.240;2023-07-31T14:20:57;4.63;;;1.38;;
75465;SDS011;64049;46.290;44.240;2023-07-31T14:23:23;5.88;;;1.73;;
75465;SDS011;64049;46.290;44.240;2023-07-31T14:25:49;8.18;;;1.77;;
75465;SDS011;64049;46.290;44.240;2023-07-31T14:28:15;5.75;;;1.60;;
75465;SDS011;64049;46.290;44.240;2023-07-31T14:30:41;5.25;;;1.70;;
75465;SDS011;64049;46.290;44.240;2023-07-31T14:33:07;6.15;;;1.50;;
75465;SDS011;64049;46.290;44.240;2023-07-31T14:35:33;8.52;;;2.25;;
75465;SDS011;64049;46.290;44.240;2023-07-31T14:37:59;5.13;;;1.70;;
75465;SDS011;64049;46.290;44.240;2023-07-31T14:40:25;5.28;;;1.73;;
75465;SDS011;64049;46.290;44.240;2023-07-31T14:42:51;6.28;;;1.73;;
75465;SDS011;64049;46.290;44.240;2023-07-31T14:45:17;7.25;;;1.67;;
75465;SDS011;64049;46.290;44.240;2023-07-31T14:47:43;4.78;;;1.60;;
75465;SDS011;64049;46.290;44.240;2023-07-31T14:50:09;4.75;;;1.63;;
75465;SDS011;64049;46.290;44.240;2023-07-31T14:52:35;6.68;;;1.90;;
75465;SDS011;64049;46.290;44.240;2023-07-31T14:55:01;7.00;;;2.15;;
75465;SDS011;64049;46.290;44.240;2023-07-31T14:57:27;10.05;;;2.10;;
75465;SDS011;64049;46.290;44.240;2023-07-31T14:59:53;12.57;;;2.60;;
75465;SDS011;64049;46.290;44.240;2023-07-31T15:02:19;9.60;;;2.00;;
75465;SDS011;64049;46.290;44.240;2023-07-31T15:04:45;10.00;;;2.20;;
75465;SDS011;64049;46.290;44.240;2023-07-31T15:07:11;8.40;;;1.73;;
75465;SDS011;64049;46.290;44.240;2023-07-31T15:09:39;8.48;;;2.25;;
75465;SDS011;64049;46.290;44.240;2023-07-31T15:12:05;7.63;;;1.95;;
75465;SDS011;64049;46.290;44.240;2023-07-31T15:14:31;6.28;;;1.98;;
75465;SDS011;64049;46.290;44.240;2023-07-31T15:16:57;7.40;;;2.55;;